Time;durP1;ratioP1;P1;durP2;ratioP2;P2;SDS_P1;SDS_P2;PMS_P1;PMS_P2;Temp;Humidity;BMP_temperature;BMP_pressure;BME280_temperature;BME280_humidity;BME280_pressure;Samples;Min_cycle;Max_cycle;Signal;HPM_P1;HPM_P2
2022/06/08 00:02:21;;;;;;;1.20;1.08;;;;;;;17.46;78.26;100717.78;20888998;28;20048;-79
2022/06/08 00:12:22;;;;;;;1.45;1.13;;;;;;;17.57;78.20;100732.09;20888329;28;20509;-78
2022/06/08 00:22:24;;;;;;;1.13;1.02;;;;;;;17.52;78.15;100686.78;20889348;28;20056;-78
2022/06/08 00:32:26;;;;;;;1.27;0.90;;;;;;;17.57;78.15;100706.06;20834113;28;20081;-78
2022/06/08 00:42:28;;;;;;;0.98;0.90;;;;;;;17.60;77.74;100705.78;20801058;28;20139;-78
2022/06/08 00:52:30;;;;;;;1.15;1.08;;;;;;;17.50;77.34;100697.69;20803573;28;20065;-79
2022/06/08 01:02:32;;;;;;;0.90;0.90;;;;;;;17.34;77.36;100657.84;20801587;28;20049;-78
2022/06/08 01:12:36;;;;;;;1.17;0.97;;;;;;;17.50;77.20;100673.47;20801509;28;20115;-78
2022/06/08 01:22:41;;;;;;;0.90;0.90;;;;;;;17.53;77.03;100666.97;20785969;28;20041;-78
2022/06/08 01:33:01;;;;;;;1.45;1.00;;;;;;;17.58;76.97;100671.91;20800496;28;20053;-78
2022/06/08 01:43:38;;;;;;;0.85;0.85;;;;;;;17.55;76.90;100654.22;20796752;28;20124;-78
2022/06/08 01:53:51;;;;;;;0.70;0.70;;;;;;;17.56;76.81;100644.28;20876490;28;20505;-79
2022/06/08 02:04:09;;;;;;;1.00;1.00;;;;;;;17.54;76.75;100631.81;20878804;28;20069;-78
2022/06/08 02:14:16;;;;;;;1.23;1.13;;;;;;;17.55;76.71;100624.59;20831729;28;20052;-78
2022/06/08 02:24:26;;;;;;;1.05;1.00;;;;;;;17.53;76.88;100613.97;20741908;28;20569;-78
2022/06/08 02:34:34;;;;;;;1.48;1.35;;;;;;;17.54;76.83;100607.59;20798370;28;20054;-78
2022/06/08 02:44:40;;;;;;;1.55;1.17;;;;;;;17.54;76.98;100598.69;20812904;28;20136;-78
2022/06/08 02:54:42;;;;;;;1.77;1.40;;;;;;;17.29;77.23;100540.88;20812575;28;20065;-78
2022/06/08 03:04:55;;;;;;;1.27;1.17;;;;;;;17.48;76.98;100538.19;20794927;28;20054;-78
2022/06/08 03:14:56;;;;;;;1.77;1.30;;;;;;;17.52;77.22;100544.13;20874586;28;20049;-78
2022/06/08 03:25:01;;;;;;;1.77;1.67;;;;;;;17.52;77.33;100546.84;20880536;28;20146;-78
2022/06/08 03:35:04;;;;;;;1.40;1.30;;;;;;;17.48;77.38;100532.78;20857007;28;20504;-78
2022/06/08 03:45:08;;;;;;;1.70;1.60;;;;;;;17.51;77.41;100537.06;20889859;28;20124;-78
2022/06/08 03:55:12;;;;;;;1.63;1.50;;;;;;;17.51;77.49;100540.59;20891004;28;20498;-78
2022/06/08 04:05:14;;;;;;;2.15;1.60;;;;;;;17.38;77.49;100508.56;20888526;28;20068;-78
2022/06/08 04:15:41;;;;;;;1.70;1.60;;;;;;;17.50;77.58;100541.56;20871254;28;20045;-78
2022/06/08 04:25:41;;;;;;;1.58;1.48;;;;;;;17.52;77.53;100536.06;20835034;28;20041;-78
2022/06/08 04:35:44;;;;;;;2.40;2.20;;;;;;;17.51;77.80;100523.59;20793402;28;20118;-78
2022/06/08 04:45:46;;;;;;;3.17;2.20;;;;;;;17.51;77.89;100542.44;20808880;28;20050;-78
2022/06/08 04:55:50;;;;;;;2.25;1.90;;;;;;;17.50;78.02;100544.28;20780762;28;20465;-78
2022/06/08 05:05:52;;;;;;;1.95;1.83;;;;;;;17.50;78.12;100541.56;20784585;28;20564;-77
2022/06/08 05:16:04;;;;;;;3.20;2.22;;;;;;;17.50;78.24;100529.97;20855920;28;20045;-77
2022/06/08 05:26:09;;;;;;;2.58;2.10;;;;;;;17.49;78.28;100531.81;20812179;28;20049;-77
2022/06/08 05:36:12;;;;;;;2.95;2.20;;;;;;;17.22;78.56;100481.41;20811318;28;20140;-78
2022/06/08 05:46:16;;;;;;;2.53;2.33;;;;;;;17.50;78.58;100522.75;20838517;28;20037;-77
2022/06/08 05:56:21;;;;;;;2.40;2.20;;;;;;;17.52;79.11;100515.38;20803216;28;20044;-76
2022/06/08 06:06:25;;;;;;;3.33;2.40;;;;;;;17.52;79.43;100501.09;20769289;28;20054;-77
2022/06/08 06:16:27;;;;;;;6.45;3.00;;;;;;;17.43;81.70;100489.31;20763650;28;20112;-77
2022/06/08 06:26:31;;;;;;;9.55;2.92;;;;;;;17.59;83.89;100487.88;20802870;28;20072;-77
2022/06/08 06:37:00;;;;;;;6.47;3.20;;;;;;;17.60;85.75;100476.97;20824088;28;20052;-77
2022/06/08 06:47:03;;;;;;;8.63;3.08;;;;;;;17.59;86.13;100483.34;20840581;28;20443;-77
2022/06/08 06:57:13;;;;;;;11.95;3.70;;;;;;;17.59;85.93;100477.09;20754622;28;20050;-77
2022/06/08 07:07:16;;;;;;;4.47;3.00;;;;;;;17.60;85.64;100471.59;20776701;28;20033;-77
2022/06/08 07:17:18;;;;;;;6.53;2.63;;;;;;;17.66;85.72;100471.00;20822169;28;20112;-77
2022/06/08 07:27:22;;;;;;;6.47;3.40;;;;;;;17.71;85.19;100451.75;20860400;28;20052;-77
2022/06/08 07:37:25;;;;;;;3.92;2.40;;;;;;;17.74;84.70;100445.19;20867809;28;20049;-77
2022/06/08 07:47:26;;;;;;;3.70;2.90;;;;;;;17.77;84.76;100436.81;20866761;28;20111;-77
2022/06/08 07:57:32;;;;;;;3.60;2.30;;;;;;;17.79;84.44;100430.31;20849945;28;20059;-78
2022/06/08 08:07:34;;;;;;;2.30;2.10;;;;;;;17.82;84.59;100421.06;20856595;28;20471;-77
2022/06/08 08:17:36;;;;;;;4.40;2.10;;;;;;;17.85;84.89;100415.38;20858967;28;20052;-77
2022/06/08 08:27:37;;;;;;;2.15;1.70;;;;;;;17.77;84.90;100381.16;20844349;28;20052;-77
2022/06/08 08:37:39;;;;;;;3.28;1.88;;;;;;;17.88;84.92;100390.84;20847447;28;20135;-77
2022/06/08 08:47:50;;;;;;;2.00;1.60;;;;;;;17.71;84.91;100367.41;20852669;28;20080;-77
2022/06/08 08:58:02;;;;;;;2.05;1.73;;;;;;;17.86;85.11;100383.94;20831458;28;20095;-77
2022/06/08 09:08:09;;;;;;;2.03;1.58;;;;;;;17.61;85.01;100329.78;20851017;28;20049;-78
2022/06/08 09:18:28;;;;;;;2.00;1.80;;;;;;;17.87;85.19;100364.09;20840034;28;20053;-78
2022/06/08 09:28:32;;;;;;;2.28;1.60;;;;;;;17.72;85.11;100336.81;20874021;28;20049;-78
2022/06/08 09:38:37;;;;;;;1.63;1.37;;;;;;;17.83;85.30;100350.94;20843645;28;20048;-77
2022/06/08 09:59:32;;;;;;;1.52;1.42;;;;;;;17.63;85.70;100300.84;20771159;28;20080;-78
2022/06/08 10:09:52;;;;;;;1.87;1.50;;;;;;;17.78;85.56;100306.59;20762370;28;20056;-78
2022/06/08 10:20:12;;;;;;;2.42;1.30;;;;;;;17.83;85.76;100313.22;20774910;28;20506;-78
2022/06/08 10:30:26;;;;;;;1.33;1.23;;;;;;;17.85;85.66;100305.00;20825259;28;20132;-78
2022/06/08 10:40:37;;;;;;;2.25;1.42;;;;;;;17.79;86.00;100284.91;20781067;28;20053;-77
2022/06/08 10:50:46;;;;;;;1.25;1.15;;;;;;;17.87;85.88;100278.75;20760599;28;20053;-76
2022/06/08 11:00:58;;;;;;;2.83;1.27;;;;;;;17.88;86.14;100283.16;20782949;28;20460;-76
2022/06/08 11:11:01;;;;;;;2.80;1.52;;;;;;;17.92;87.23;100267.53;20774115;28;20053;-77
2022/06/08 11:21:24;;;;;;;1.40;1.30;;;;;;;17.98;88.29;100267.78;20769821;28;20137;-78
2022/06/08 11:31:26;;;;;;;1.52;1.42;;;;;;;18.05;88.38;100249.19;20809873;28;20538;-78
2022/06/08 11:41:39;;;;;;;1.67;1.50;;;;;;;18.08;88.66;100246.19;20765623;28;20045;-78
2022/06/08 11:51:41;;;;;;;1.45;1.35;;;;;;;17.99;88.32;100225.53;20760417;28;20045;-78
2022/06/08 12:01:51;;;;;;;1.30;1.20;;;;;;;17.52;88.12;100149.34;20781954;28;20041;-77
2022/06/08 12:11:55;;;;;;;3.30;1.52;;;;;;;18.07;88.00;100233.72;20774519;28;20049;-77
2022/06/08 12:22:10;;;;;;;1.63;1.52;;;;;;;18.13;88.01;100290.69;20812491;28;20045;-78
2022/06/08 12:32:21;;;;;;;1.48;1.38;;;;;;;18.11;88.22;100283.59;20762504;28;20056;-77
2022/06/08 12:42:24;;;;;;;4.75;1.80;;;;;;;18.13;89.96;100285.31;20794554;28;20057;-77
2022/06/08 12:52:34;;;;;;;3.38;1.83;;;;;;;18.20;93.11;100278.31;20849662;28;20044;-77
2022/06/08 13:02:38;;;;;;;3.45;2.17;;;;;;;18.29;99.43;100258.50;20771728;28;20099;-76
2022/06/08 13:12:47;;;;;;;6.00;2.60;;;;;;;18.23;100.00;100237.59;20753658;28;20095;-76
2022/06/08 13:22:50;;;;;;;5.20;2.45;;;;;;;18.36;100.00;100270.38;20759650;28;20041;-76
2022/06/08 13:33:01;;;;;;;5.20;2.40;;;;;;;18.36;100.00;100258.75;20767989;28;20064;-75
2022/06/08 13:43:02;;;;;;;5.28;2.20;;;;;;;18.26;100.00;100248.88;20764926;28;20132;-76
2022/06/08 13:53:07;;;;;;;3.13;2.00;;;;;;;18.27;100.00;100239.78;20758003;28;20041;-76
2022/06/08 14:03:15;;;;;;;2.90;2.20;;;;;;;18.29;100.00;100236.09;20751692;28;20056;-76
2022/06/08 14:13:20;;;;;;;4.35;1.70;;;;;;;18.40;100.00;100265.53;20756505;28;20049;-78
2022/06/08 14:23:24;;;;;;;2.95;1.88;;;;;;;18.41;100.00;100268.03;20780581;28;20057;-79
2022/06/08 14:33:29;;;;;;;2.22;1.38;;;;;;;18.29;100.00;100253.13;20757946;28;20042;-77
2022/06/08 14:43:31;;;;;;;2.20;1.50;;;;;;;18.24;100.00;100260.81;20810266;28;20053;-79
2022/06/08 14:53:33;;;;;;;3.10;1.70;;;;;;;18.33;99.87;100256.34;20842216;28;20057;-79
2022/06/08 15:03:35;;;;;;;2.00;1.40;;;;;;;18.28;99.56;100259.53;20837627;28;20049;-77
2022/06/08 15:13:39;;;;;;;1.85;1.25;;;;;;;18.25;99.43;100249.06;20759617;28;20056;-78
2022/06/08 15:23:40;;;;;;;2.75;1.85;;;;;;;18.14;99.26;100227.75;20745080;28;20042;-78
2022/06/08 15:33:42;;;;;;;2.50;1.50;;;;;;;18.19;99.04;100238.91;20756736;28;20064;-78
2022/06/08 15:43:44;;;;;;;2.55;1.40;;;;;;;18.17;99.07;100243.59;20773428;28;20470;-79
2022/06/08 15:53:49;;;;;;;2.35;1.10;;;;;;;18.15;98.84;100238.34;20826981;28;20512;-78
2022/06/08 16:03:52;;;;;;;1.40;1.30;;;;;;;18.05;98.62;100222.25;20853674;28;20040;-79
2022/06/08 16:13:53;;;;;;;1.95;1.48;;;;;;;17.88;98.90;100188.06;20841442;28;20067;-79
2022/06/08 16:23:55;;;;;;;1.80;1.25;;;;;;;18.12;98.69;100230.56;20834289;28;20644;-78
2022/06/08 16:33:57;;;;;;;2.08;1.23;;;;;;;18.11;98.99;100224.31;20787679;28;20403;-79
2022/06/08 16:43:59;;;;;;;1.50;1.30;;;;;;;18.11;99.52;100227.03;20787190;28;20054;-76
2022/06/08 16:54:01;;;;;;;2.30;1.17;;;;;;;18.09;98.74;100220.94;20783597;28;20646;-77
2022/06/08 17:04:02;;;;;;;3.00;1.58;;;;;;;17.97;98.60;100193.38;20795748;28;20112;-77
2022/06/08 17:14:04;;;;;;;1.52;1.15;;;;;;;18.02;98.35;100197.50;20841191;28;20050;-78
2022/06/08 17:24:07;;;;;;;1.83;1.00;;;;;;;18.08;99.27;100211.16;20864108;28;20040;-77
2022/06/08 17:34:10;;;;;;;1.05;0.88;;;;;;;18.09;98.47;100199.38;20855059;28;20075;-77
2022/06/08 17:44:13;;;;;;;1.50;0.85;;;;;;;18.00;98.69;100194.91;20894867;28;20057;-77
2022/06/08 17:54:15;;;;;;;1.42;1.00;;;;;;;17.94;99.02;100179.38;20810148;28;20500;-77
2022/06/08 18:04:17;;;;;;;1.40;1.08;;;;;;;18.07;98.62;100205.94;20796189;28;20132;-76
2022/06/08 18:14:19;;;;;;;2.22;1.10;;;;;;;18.06;99.02;100197.00;20795867;28;20517;-77
2022/06/08 18:24:22;;;;;;;1.00;0.82;;;;;;;17.95;98.82;100181.91;20896340;28;20045;-76
2022/06/08 18:34:26;;;;;;;1.23;1.00;;;;;;;18.01;98.73;100193.94;20911838;28;20055;-77
2022/06/08 18:44:27;;;;;;;1.07;0.80;;;;;;;18.05;98.79;100199.88;20803501;28;20053;-76
2022/06/08 18:54:29;;;;;;;1.45;1.00;;;;;;;18.04;99.29;100206.25;20799248;28;20052;-77
2022/06/08 19:04:31;;;;;;;1.48;0.82;;;;;;;18.04;99.13;100212.47;20848574;28;20099;-77
2022/06/08 19:14:32;;;;;;;0.77;0.75;;;;;;;18.03;99.13;100215.34;20828897;28;20037;-76
2022/06/08 19:24:34;;;;;;;2.40;1.00;;;;;;;18.02;98.83;100208.25;20798207;28;20053;-77
2022/06/08 19:34:35;;;;;;;0.85;0.70;;;;;;;18.02;99.13;100209.09;20817699;28;20046;-77
2022/06/08 19:44:37;;;;;;;0.63;0.60;;;;;;;17.81;99.05;100185.13;20777312;28;20057;-78
2022/06/08 19:54:38;;;;;;;0.80;0.63;;;;;;;18.00;98.82;100232.63;20834714;28;22830;-76
2022/06/08 20:04:40;;;;;;;1.25;0.70;;;;;;;18.00;98.81;100248.78;20789824;28;20054;-76
2022/06/08 20:14:42;;;;;;;0.70;0.60;;;;;;;17.81;98.68;100225.50;20876108;28;20045;-77
2022/06/08 20:24:43;;;;;;;0.70;0.70;;;;;;;17.98;98.75;100261.53;20911527;28;20053;-77
2022/06/08 20:34:45;;;;;;;1.50;0.80;;;;;;;17.98;98.60;100267.78;20885623;28;20054;-77
2022/06/08 20:44:47;;;;;;;0.88;0.80;;;;;;;17.98;98.95;100266.94;20872138;28;20061;-77
2022/06/08 20:54:50;;;;;;;1.55;0.80;;;;;;;17.95;98.70;100265.41;20811137;28;20064;-76
2022/06/08 21:04:53;;;;;;;1.23;0.55;;;;;;;17.97;98.45;100263.41;20793018;28;20067;-76
2022/06/08 21:14:54;;;;;;;0.90;0.60;;;;;;;17.96;98.43;100275.19;20805216;28;20053;-77
2022/06/08 21:24:57;;;;;;;0.65;0.60;;;;;;;17.86;98.36;100265.47;20795321;28;20109;-77
2022/06/08 21:34:59;;;;;;;0.60;0.50;;;;;;;17.95;98.20;100278.00;20836916;28;20456;-77
2022/06/08 21:45:02;;;;;;;0.85;0.68;;;;;;;17.77;97.91;100249.22;20860466;28;20052;-77
2022/06/08 21:55:04;;;;;;;1.08;0.60;;;;;;;17.94;97.90;100282.56;20797895;28;20041;-77
2022/06/08 22:05:06;;;;;;;0.65;0.57;;;;;;;17.89;97.61;100267.84;20795711;28;20124;-77
2022/06/08 22:15:09;;;;;;;0.68;0.60;;;;;;;17.81;97.60;100264.06;20796154;28;20378;-76
2022/06/08 22:25:11;;;;;;;0.57;0.57;;;;;;;17.84;97.70;100273.69;20796092;28;20055;-76
2022/06/08 22:35:16;;;;;;;1.35;0.80;;;;;;;17.92;97.20;100294.47;20795827;28;20049;-77
2022/06/08 22:45:21;;;;;;;1.27;0.77;;;;;;;17.92;97.16;100297.16;20796050;28;20135;-76
2022/06/08 22:55:29;;;;;;;1.83;0.80;;;;;;;17.88;97.36;100293.91;20888293;28;20140;-76
2022/06/08 23:05:32;;;;;;;1.42;0.80;;;;;;;17.90;97.22;100300.03;20887428;28;20524;-76
2022/06/08 23:15:34;;;;;;;1.02;0.80;;;;;;;17.83;96.95;100298.91;20808781;28;20064;-76
2022/06/08 23:25:38;;;;;;;1.60;0.90;;;;;;;17.69;96.88;100276.06;20802311;28;20059;-76
2022/06/08 23:35:39;;;;;;;1.40;0.90;;;;;;;17.89;96.73;100295.59;20819565;28;20506;-76
2022/06/08 23:45:41;;;;;;;1.52;1.00;;;;;;;17.89;96.77;100302.84;20797736;28;20128;-76
2022/06/08 23:55:43;;;;;;;1.60;1.23;;;;;;;17.89;96.59;100310.94;20798366;28;20050;-76
